Time;durP1;ratioP1;P1;durP2;ratioP2;P2;SDS_P1;SDS_P2;PMS_P1;PMS_P2;Temp;Humidity;BMP_temperature;BMP_pressure;BME280_temperature;BME280_humidity;BME280_pressure;Samples;Min_cycle;Max_cycle;Signal;HPM_P1;HPM_P2
2021/12/06 00:02:22;;;;;;;2.50;2.03;;;;;;;3.27;89.16;94529.56;4386300;32;20197;-60
2021/12/06 00:04:48;;;;;;;3.43;2.50;;;;;;;3.15;89.04;94542.16;4387502;32;20253;-60
2021/12/06 00:07:21;;;;;;;3.67;2.93;;;;;;;3.32;88.89;94526.94;4388602;32;20276;-60
2021/12/06 00:09:46;;;;;;;2.77;2.57;;;;;;;3.16;89.65;94533.25;4380438;32;20243;-60
2021/12/06 00:12:14;;;;;;;2.43;2.23;;;;;;;3.08;89.49;94534.59;4377290;32;20312;-60
2021/12/06 00:14:41;;;;;;;2.90;2.70;;;;;;;3.09;89.36;94532.75;4389034;32;20207;-60
2021/12/06 00:17:10;;;;;;;2.90;2.10;;;;;;;3.01;90.00;94533.28;4388279;32;20341;-60
2021/12/06 00:19:36;;;;;;;2.27;2.07;;;;;;;3.03;89.67;94533.81;4384586;32;20286;-61
2021/12/06 00:22:05;;;;;;;2.47;1.97;;;;;;;3.11;89.79;94541.16;4393168;32;20298;-60
2021/12/06 00:24:31;;;;;;;1.77;1.67;;;;;;;3.18;89.77;94539.00;4390940;32;20293;-60
2021/12/06 00:26:56;;;;;;;2.47;1.83;;;;;;;3.07;90.15;94546.13;4382409;32;20264;-60
2021/12/06 00:29:22;;;;;;;2.37;2.17;;;;;;;3.02;90.57;94553.19;4388611;32;20195;-60
2021/12/06 00:31:47;;;;;;;2.37;2.17;;;;;;;3.18;90.15;94554.75;4381619;32;20185;-60
2021/12/06 00:34:16;;;;;;;2.00;1.90;;;;;;;3.18;90.00;94549.50;4386593;32;20194;-60
2021/12/06 00:36:51;;;;;;;1.77;1.67;;;;;;;3.30;89.12;94552.63;4385646;32;20196;-60
2021/12/06 00:39:18;;;;;;;2.43;2.23;;;;;;;3.24;89.18;94561.53;4379666;32;20268;-60
2021/12/06 00:41:43;;;;;;;1.90;1.70;;;;;;;3.33;88.71;94552.06;4387609;32;20287;-60
2021/12/06 00:44:09;;;;;;;3.67;2.33;;;;;;;3.29;89.55;94566.00;4388065;32;20342;-60
2021/12/06 00:46:37;;;;;;;3.87;2.47;;;;;;;3.30;90.01;94560.50;4383313;32;20199;-60
2021/12/06 00:49:03;;;;;;;4.43;2.37;;;;;;;3.29;89.68;94568.63;4390938;32;20246;-60
2021/12/06 00:51:29;;;;;;;2.70;2.50;;;;;;;3.34;89.24;94558.09;4386308;32;20284;-60
2021/12/06 00:53:54;;;;;;;3.20;2.20;;;;;;;3.44;88.75;94565.94;4385714;32;20407;-60
2021/12/06 00:56:20;;;;;;;2.50;2.30;;;;;;;3.48;88.48;94576.69;4384078;32;20193;-60
2021/12/06 00:58:45;;;;;;;2.37;2.17;;;;;;;3.48;88.60;94574.06;4391876;32;20270;-60
2021/12/06 01:01:11;;;;;;;2.37;2.17;;;;;;;3.41;88.93;94576.97;4388887;32;20226;-60
2021/12/06 01:03:39;;;;;;;2.80;2.60;;;;;;;3.49;88.14;94580.88;4387421;32;20223;-61
2021/12/06 01:06:07;;;;;;;3.93;2.03;;;;;;;3.46;88.21;94579.56;4379302;32;20255;-60
2021/12/06 01:08:32;;;;;;;5.07;2.63;;;;;;;3.41;88.71;94574.34;4389693;32;20280;-60
2021/12/06 01:10:58;;;;;;;2.37;2.23;;;;;;;3.12;90.57;94579.38;4388753;32;20299;-61
2021/12/06 01:13:26;;;;;;;2.43;2.23;;;;;;;3.28;90.55;94569.66;4386276;32;20185;-60
2021/12/06 01:15:52;;;;;;;2.17;1.97;;;;;;;3.40;89.68;94580.63;4381902;32;20211;-60
2021/12/06 01:18:19;;;;;;;2.77;2.20;;;;;;;3.51;89.55;94581.41;4380783;32;20284;-60
2021/12/06 01:20:54;;;;;;;2.13;2.03;;;;;;;3.35;89.44;94591.91;4387842;32;20195;-60
2021/12/06 01:23:25;;;;;;;2.70;2.50;;;;;;;3.61;88.75;94591.84;4374831;32;20284;-60
2021/12/06 01:26:26;;;;;;;2.63;2.43;;;;;;;3.64;88.22;94592.09;4381555;32;20295;-60
2021/12/06 01:29:06;;;;;;;2.77;2.57;;;;;;;3.58;88.29;94598.41;4376015;32;20295;-60
2021/12/06 01:39:07;;;;;;;5.53;3.20;;;;;;;3.45;88.97;94605.00;4388269;32;20295;-60
2021/12/06 01:39:27;;;;;;;5.97;3.70;;;;;;;3.41;89.43;94609.19;4376599;32;20382;-60
2021/12/06 01:41:59;;;;;;;7.47;4.30;;;;;;;3.43;89.74;94622.03;4387561;32;20363;-60
2021/12/06 01:44:38;;;;;;;5.10;4.27;;;;;;;3.43;89.66;94616.81;4379698;32;20277;-60
2021/12/06 01:47:08;;;;;;;5.33;4.93;;;;;;;3.49;89.33;94614.97;4381888;32;20288;-60
2021/12/06 01:49:38;;;;;;;5.67;5.23;;;;;;;3.22;90.58;94621.28;4384986;32;20291;-60
2021/12/06 01:52:10;;;;;;;6.40;5.80;;;;;;;3.30;90.52;94623.38;4386215;32;20291;-60
2021/12/06 01:54:36;;;;;;;7.10;6.57;;;;;;;3.16;91.29;94632.81;4390981;32;20298;-60
2021/12/06 01:57:03;;;;;;;6.40;5.87;;;;;;;3.20;91.07;94628.63;4383998;32;20269;-60
2021/12/06 01:59:28;;;;;;;6.93;6.33;;;;;;;3.12;91.48;94629.94;4382163;32;20257;-60
2021/12/06 02:01:55;;;;;;;15.53;6.50;;;;;;;2.92;92.41;94643.03;4384039;32;20280;-59
2021/12/06 02:04:20;;;;;;;8.13;7.43;;;;;;;2.82;93.06;94642.25;4385362;32;20208;-59
2021/12/06 02:06:46;;;;;;;9.90;8.90;;;;;;;2.82;93.52;94637.03;4377577;32;20308;-59
2021/12/06 02:09:15;;;;;;;10.87;9.77;;;;;;;2.82;93.86;94631.78;4377820;32;20172;-59
2021/12/06 02:11:43;;;;;;;11.37;9.57;;;;;;;2.71;93.79;94642.25;4379444;32;20252;-59
2021/12/06 02:17:04;;;;;;;12.97;11.63;;;;;;;2.72;94.34;94643.81;4378512;32;20315;-59
2021/12/06 02:19:34;;;;;;;13.80;10.90;;;;;;;2.72;94.03;94651.66;4379634;32;20273;-59
2021/12/06 02:22:01;;;;;;;12.47;10.87;;;;;;;2.82;94.00;94648.28;4377377;32;20277;-59
2021/12/06 02:24:30;;;;;;;12.10;10.87;;;;;;;2.84;93.61;94645.41;4381100;32;20269;-59
2021/12/06 02:26:56;;;;;;;13.43;11.70;;;;;;;2.79;93.72;94648.03;4378196;32;20364;-59
2021/12/06 02:29:21;;;;;;;13.23;11.80;;;;;;;2.80;93.65;94644.34;4381267;32;20281;-62
2021/12/06 02:31:46;;;;;;;12.67;10.80;;;;;;;2.79;93.89;94648.03;4373151;32;20239;-60
2021/12/06 02:34:12;;;;;;;11.57;10.47;;;;;;;2.83;94.31;94646.47;4380581;32;20185;-58
2021/12/06 02:36:38;;;;;;;11.93;10.37;;;;;;;2.88;93.93;94649.09;4385929;32;20197;-59
2021/12/06 02:39:05;;;;;;;12.57;10.50;;;;;;;2.99;93.61;94653.28;4387106;32;20223;-58
2021/12/06 02:41:33;;;;;;;11.80;10.47;;;;;;;2.83;93.51;94655.09;4381007;32;20185;-58
2021/12/06 02:43:59;;;;;;;13.87;11.27;;;;;;;3.04;93.48;94655.91;4379926;32;20335;-58
2021/12/06 02:46:24;;;;;;;11.37;10.17;;;;;;;2.86;93.25;94659.03;4376865;32;20272;-58
2021/12/06 02:48:51;;;;;;;12.30;10.73;;;;;;;2.99;93.42;94659.28;4377313;32;20193;-58
2021/12/06 02:51:18;;;;;;;12.27;10.77;;;;;;;3.05;93.03;94660.88;4376368;32;20185;-59
2021/12/06 02:53:44;;;;;;;12.40;10.47;;;;;;;3.07;92.76;94668.47;4388126;32;20349;-61
2021/12/06 02:56:29;;;;;;;12.43;10.33;;;;;;;3.12;92.75;94665.84;4382222;32;20310;-61
2021/12/06 02:58:56;;;;;;;11.83;10.10;;;;;;;3.16;92.04;94664.25;4382892;32;20277;-61
2021/12/06 03:01:30;;;;;;;11.93;10.73;;;;;;;3.30;92.15;94660.09;4388011;32;20280;-61
2021/12/06 03:03:56;;;;;;;11.53;10.17;;;;;;;3.53;90.96;94658.75;4379667;32;20351;-61
2021/12/06 03:06:22;;;;;;;11.70;10.47;;;;;;;3.51;90.08;94670.53;4378979;32;20326;-61
2021/12/06 03:08:58;;;;;;;11.60;10.47;;;;;;;3.37;90.88;94678.94;4386038;32;20185;-61
2021/12/06 03:11:30;;;;;;;11.40;10.30;;;;;;;3.50;90.73;94676.84;4385885;32;20305;-61
2021/12/06 03:13:56;;;;;;;11.00;9.83;;;;;;;3.61;89.85;94675.75;4382904;32;20356;-61
2021/12/06 03:16:22;;;;;;;11.77;10.20;;;;;;;3.51;90.10;94681.03;4384306;32;20343;-61
2021/12/06 03:18:50;;;;;;;11.70;10.50;;;;;;;3.56;90.68;94673.13;4394365;32;20268;-61
2021/12/06 03:21:17;;;;;;;10.73;9.63;;;;;;;3.64;89.94;94675.22;4384633;32;20282;-61
2021/12/06 03:23:43;;;;;;;11.27;10.07;;;;;;;3.53;90.18;94681.56;4380890;32;20276;-61
2021/12/06 03:26:08;;;;;;;10.60;9.03;;;;;;;3.75;89.31;94682.00;4389155;32;20284;-61
2021/12/06 03:28:38;;;;;;;7.77;7.17;;;;;;;3.80;88.80;94688.03;4394871;32;20365;-61
2021/12/06 03:31:06;;;;;;;8.07;7.27;;;;;;;3.92;87.59;94687.75;4381679;32;20236;-61
2021/12/06 03:33:34;;;;;;;8.57;7.73;;;;;;;3.90;87.63;94694.31;4390438;32;20312;-60
2021/12/06 03:35:59;;;;;;;10.00;9.00;;;;;;;3.89;87.74;94695.38;4386168;32;20292;-61
2021/12/06 03:38:25;;;;;;;9.93;9.00;;;;;;;3.61;88.91;94692.28;4390169;32;20432;-61
2021/12/06 03:40:50;;;;;;;10.40;9.37;;;;;;;3.61;89.23;94694.91;4384241;32;20197;-61
2021/12/06 03:43:16;;;;;;;10.30;9.23;;;;;;;3.70;89.50;94695.94;4378384;32;20215;-61
2021/12/06 03:45:41;;;;;;;10.20;9.17;;;;;;;3.62;89.97;94703.53;4379150;32;20209;-60
2021/12/06 03:48:07;;;;;;;11.47;10.00;;;;;;;3.64;90.18;94699.62;4381403;32;20215;-61
2021/12/06 03:50:32;;;;;;;10.73;9.33;;;;;;;3.62;90.11;94701.72;4387436;32;20222;-60
2021/12/06 03:52:58;;;;;;;10.57;9.57;;;;;;;3.60;90.38;94706.44;4379875;32;20206;-59
2021/12/06 03:55:23;;;;;;;10.80;9.77;;;;;;;3.72;90.01;94706.97;4386325;32;20244;-59
2021/12/06 03:57:48;;;;;;;11.63;10.43;;;;;;;3.71;90.20;94707.22;4378244;32;20215;-59
2021/12/06 04:00:15;;;;;;;11.07;9.97;;;;;;;3.62;90.34;94714.03;4382817;32;20185;-59
2021/12/06 04:02:43;;;;;;;11.10;9.50;;;;;;;3.67;90.37;94714.03;4384516;32;20192;-59
2021/12/06 04:05:09;;;;;;;11.03;10.00;;;;;;;3.78;89.91;94707.72;4388933;32;20292;-59
2021/12/06 04:07:34;;;;;;;11.47;10.03;;;;;;;3.75;89.70;94718.72;4377945;32;20299;-58
2021/12/06 04:09:59;;;;;;;10.90;9.80;;;;;;;3.73;90.04;94720.84;4384542;32;20189;-58
2021/12/06 04:12:25;;;;;;;11.23;10.23;;;;;;;3.70;89.94;94727.41;4379695;32;20272;-58
2021/12/06 04:14:51;;;;;;;16.00;10.53;;;;;;;3.73;89.70;94728.72;4378036;32;20230;-58
2021/12/06 04:17:17;;;;;;;11.33;10.10;;;;;;;3.72;90.06;94724.53;4381237;32;20224;-58
2021/12/06 04:19:42;;;;;;;11.10;10.10;;;;;;;3.68;89.92;94737.38;4387759;32;20295;-59
2021/12/06 04:22:09;;;;;;;10.37;9.37;;;;;;;3.57;90.70;94735.00;4381079;32;20192;-59
2021/12/06 04:24:34;;;;;;;10.43;9.43;;;;;;;3.66;90.59;94736.06;4390473;32;20223;-59
2021/12/06 04:27:05;;;;;;;9.80;8.90;;;;;;;3.70;90.36;94744.97;4381067;32;20281;-58
2021/12/06 04:29:31;;;;;;;9.77;8.87;;;;;;;3.69;89.97;94743.41;4382882;32;20211;-58
2021/12/06 04:31:56;;;;;;;11.00;9.90;;;;;;;3.74;89.87;94732.91;4387749;32;20284;-59
2021/12/06 04:34:22;;;;;;;11.23;10.10;;;;;;;3.75;90.05;94747.56;4387291;32;20189;-58
2021/12/06 04:36:48;;;;;;;13.10;10.27;;;;;;;3.76;89.69;94751.78;4380139;32;20224;-59
2021/12/06 04:39:15;;;;;;;12.00;10.93;;;;;;;3.67;90.00;94753.38;4378396;32;20281;-59
2021/12/06 04:41:42;;;;;;;10.90;9.87;;;;;;;3.48;91.29;94752.34;4388440;32;20273;-59
2021/12/06 04:44:08;;;;;;;11.67;10.50;;;;;;;3.30;92.25;94753.66;4377097;32;20307;-59
2021/12/06 04:46:33;;;;;;;13.03;10.17;;;;;;;3.38;92.17;94751.28;4385644;32;20291;-59
2021/12/06 04:48:59;;;;;;;12.50;10.73;;;;;;;3.37;92.15;94760.19;4383531;32;20198;-58
2021/12/06 04:51:25;;;;;;;12.17;10.70;;;;;;;3.06;92.97;94764.63;4391962;32;20192;-59
2021/12/06 04:53:51;;;;;;;13.00;11.03;;;;;;;3.25;93.31;94762.28;4383894;32;20207;-59
2021/12/06 04:56:31;;;;;;;12.30;11.00;;;;;;;3.14;93.22;94765.94;4387613;32;20229;-59
2021/12/06 04:59:13;;;;;;;13.47;12.13;;;;;;;2.89;93.97;94769.31;4388741;32;20368;-59
2021/12/06 05:01:39;;;;;;;12.47;11.27;;;;;;;3.13;94.01;94774.84;4376445;32;20311;-59
2021/12/06 05:04:09;;;;;;;14.40;11.97;;;;;;;3.35;93.20;94778.00;4387270;32;20276;-59
2021/12/06 05:06:39;;;;;;;13.83;10.70;;;;;;;3.25;93.03;94777.22;4383372;32;20352;-59
2021/12/06 05:09:12;;;;;;;12.33;11.03;;;;;;;3.34;92.67;94781.66;4380416;32;20277;-59
2021/12/06 05:11:38;;;;;;;15.27;12.20;;;;;;;3.40;92.40;94787.72;4389158;32;20272;-59
2021/12/06 05:14:04;;;;;;;13.00;11.63;;;;;;;3.31;92.52;94786.69;4393290;32;20276;-58
2021/12/06 05:16:30;;;;;;;13.40;12.00;;;;;;;3.21;93.04;94795.28;4384444;32;20242;-59
2021/12/06 05:18:55;;;;;;;13.40;11.97;;;;;;;3.39;92.70;94794.00;4384672;32;20283;-58
2021/12/06 05:21:21;;;;;;;14.77;12.13;;;;;;;3.31;92.27;94803.19;4385902;32;20281;-59
2021/12/06 05:23:49;;;;;;;13.43;12.13;;;;;;;3.25;92.93;94798.97;4383879;32;20233;-59
2021/12/06 05:26:14;;;;;;;14.40;12.90;;;;;;;3.22;92.98;94799.50;4387548;32;20258;-59
2021/12/06 05:28:43;;;;;;;15.03;12.67;;;;;;;3.13;93.39;94793.16;4389097;32;20289;-59
2021/12/06 05:31:15;;;;;;;14.63;13.13;;;;;;;2.93;93.85;94804.41;4390201;32;20202;-59
2021/12/06 05:33:44;;;;;;;14.80;13.20;;;;;;;3.06;93.94;94811.00;4383461;32;20289;-59
2021/12/06 05:36:10;;;;;;;15.63;13.00;;;;;;;3.21;93.35;94808.41;4392423;32;20279;-59
2021/12/06 05:38:36;;;;;;;14.13;12.63;;;;;;;3.13;92.91;94811.50;4390488;32;20311;-59
2021/12/06 05:41:02;;;;;;;18.13;12.83;;;;;;;3.11;93.07;94818.87;4385937;32;20202;-59
2021/12/06 05:43:27;;;;;;;15.90;13.80;;;;;;;3.08;93.62;94816.75;4385694;32;20211;-59
2021/12/06 05:45:53;;;;;;;15.87;13.00;;;;;;;3.03;93.76;94816.75;4380530;32;20277;-59
2021/12/06 05:48:18;;;;;;;14.43;12.87;;;;;;;2.84;94.67;94819.06;4382198;32;20206;-59
2021/12/06 05:50:46;;;;;;;14.93;13.40;;;;;;;2.70;94.94;94817.97;4388738;32;20189;-59
2021/12/06 05:53:11;;;;;;;16.13;12.17;;;;;;;2.79;94.62;94831.31;4385922;32;20279;-59
2021/12/06 05:55:36;;;;;;;13.53;12.13;;;;;;;2.90;94.74;94840.81;4386570;32;20386;-59
2021/12/06 05:58:04;;;;;;;12.80;11.37;;;;;;;3.03;94.12;94842.94;4393655;32;20192;-58
2021/12/06 06:00:32;;;;;;;13.33;11.93;;;;;;;2.99;93.70;94847.13;4386411;32;20256;-58
2021/12/06 06:02:59;;;;;;;13.07;11.73;;;;;;;2.86;93.71;94847.59;4385361;32;20326;-60
2021/12/06 06:05:25;;;;;;;11.60;10.40;;;;;;;2.86;93.73;94858.09;4380100;32;20304;-60
2021/12/06 06:07:50;;;;;;;13.60;11.57;;;;;;;2.88;93.20;94856.78;4379443;32;20398;-59
2021/12/06 06:10:16;;;;;;;13.60;11.33;;;;;;;3.04;92.87;94863.66;4380776;32;20189;-59
2021/12/06 06:12:42;;;;;;;12.53;11.33;;;;;;;2.91;93.02;94861.50;4389119;32;20196;-60
2021/12/06 06:15:08;;;;;;;16.17;11.73;;;;;;;2.69;93.84;94874.00;4383958;32;20240;-60
2021/12/06 06:17:40;;;;;;;15.50;11.33;;;;;;;2.84;93.95;94871.44;4380706;32;20280;-59
2021/12/06 06:20:29;;;;;;;12.27;10.77;;;;;;;2.73;94.11;94875.03;4374456;32;20300;-65
2021/12/06 06:22:55;;;;;;;14.17;11.27;;;;;;;2.77;94.54;94881.34;4385983;32;20358;-59
2021/12/06 06:25:21;;;;;;;13.33;11.27;;;;;;;2.83;93.81;94879.53;4384237;32;20284;-60
2021/12/06 06:27:46;;;;;;;14.43;11.33;;;;;;;2.84;94.40;94886.34;4374416;32;20206;-59
2021/12/06 06:30:13;;;;;;;13.60;12.17;;;;;;;2.73;94.34;94898.59;4382881;32;20223;-60
2021/12/06 06:32:39;;;;;;;14.23;12.17;;;;;;;2.86;94.16;94902.59;4370121;32;20181;-60
2021/12/06 06:35:05;;;;;;;14.13;12.33;;;;;;;2.90;94.36;94901.06;4385258;32;20291;-59
2021/12/06 06:37:32;;;;;;;15.77;12.53;;;;;;;2.88;94.27;94908.38;4385171;32;20207;-59
2021/12/06 06:39:57;;;;;;;16.13;12.93;;;;;;;2.83;94.31;94906.53;4375768;32;20288;-59
2021/12/06 06:42:23;;;;;;;16.03;13.20;;;;;;;2.66;94.58;94922.41;4372679;32;20284;-60
2021/12/06 06:44:50;;;;;;;15.07;12.40;;;;;;;2.69;94.43;94915.88;4389126;32;20199;-60
2021/12/06 06:47:16;;;;;;;17.23;13.30;;;;;;;2.52;95.51;94915.22;4387578;32;20245;-60
2021/12/06 06:49:41;;;;;;;16.07;12.80;;;;;;;2.57;95.67;94918.69;4383646;32;20296;-60
2021/12/06 06:52:06;;;;;;;15.73;12.87;;;;;;;2.71;95.07;94919.00;4384430;32;20228;-60
2021/12/06 06:54:32;;;;;;;15.93;12.60;;;;;;;2.68;95.39;94928.19;4389501;32;20243;-59
2021/12/06 06:56:57;;;;;;;15.90;12.77;;;;;;;2.79;94.96;94938.69;4379000;32;20203;-60
2021/12/06 06:59:22;;;;;;;19.97;13.47;;;;;;;2.83;94.92;94939.78;4382755;32;20185;-60
2021/12/06 07:01:48;;;;;;;16.53;13.63;;;;;;;2.74;95.43;94942.88;4383136;32;20194;-59
2021/12/06 07:04:13;;;;;;;18.33;13.90;;;;;;;2.92;94.90;94944.25;4377639;32;20207;-60
2021/12/06 07:06:39;;;;;;;15.53;12.60;;;;;;;2.75;94.78;94947.06;4378986;32;20250;-59
2021/12/06 07:09:04;;;;;;;17.50;13.63;;;;;;;2.81;94.74;94954.94;4385363;32;20176;-59
2021/12/06 07:11:30;;;;;;;17.17;13.80;;;;;;;2.80;94.53;94945.50;4372453;32;20193;-59
2021/12/06 07:13:55;;;;;;;17.87;13.10;;;;;;;2.71;94.72;94956.47;4383525;32;20325;-59
2021/12/06 07:16:21;;;;;;;17.57;13.17;;;;;;;2.86;93.91;94957.59;4385216;32;20231;-59
2021/12/06 07:18:46;;;;;;;18.93;13.83;;;;;;;2.71;94.17;94961.69;4388309;32;20184;-59
2021/12/06 07:21:14;;;;;;;16.17;12.77;;;;;;;2.86;94.22;94968.09;4373275;32;20236;-59
2021/12/06 07:23:41;;;;;;;17.03;13.87;;;;;;;2.83;94.36;94963.34;4378725;32;20181;-60
2021/12/06 07:26:13;;;;;;;21.50;14.43;;;;;;;2.82;94.38;94974.88;4376943;32;20291;-60
2021/12/06 07:28:39;;;;;;;19.20;14.10;;;;;;;2.84;94.48;94981.44;4389085;32;20282;-60
2021/12/06 07:31:06;;;;;;;20.13;13.27;;;;;;;2.88;94.42;94982.50;4383296;32;20288;-59
2021/12/06 07:33:33;;;;;;;15.50;12.50;;;;;;;2.76;94.31;94980.06;4383171;32;20276;-59
2021/12/06 07:36:00;;;;;;;15.90;12.97;;;;;;;2.91;94.31;94986.47;4382571;32;20263;-62
2021/12/06 07:38:25;;;;;;;18.47;13.10;;;;;;;3.08;93.68;94987.84;4372093;32;20334;-59
2021/12/06 07:40:51;;;;;;;19.47;12.83;;;;;;;3.88;98.57;94985.78;4378200;32;20280;-59
2021/12/06 07:43:18;;;;;;;15.87;12.47;;;;;;;4.68;99.32;94986.88;4378543;32;20198;-59
2021/12/06 07:45:43;;;;;;;14.47;10.67;;;;;;;4.56;93.40;94991.63;4379508;32;20211;-59
2021/12/06 07:48:09;;;;;;;14.50;12.93;;;;;;;4.96;93.20;95003.16;4380734;32;20272;-59
2021/12/06 07:50:34;;;;;;;16.60;12.93;;;;;;;5.46;93.28;94994.34;4378088;32;20181;-58
2021/12/06 07:52:59;;;;;;;14.47;11.97;;;;;;;5.38;87.67;95008.84;4371175;32;20219;-59
2021/12/06 07:55:27;;;;;;;14.20;12.70;;;;;;;5.36;86.00;94997.81;4370261;32;20183;-58
2021/12/06 07:57:56;;;;;;;14.63;12.70;;;;;;;4.64;85.04;95001.59;4369681;32;20185;-58
2021/12/06 08:00:23;;;;;;;15.53;13.10;;;;;;;4.32;86.27;95006.34;4372172;32;20269;-58
2021/12/06 08:02:49;;;;;;;17.07;13.47;;;;;;;3.88;88.20;95006.00;4364558;32;20269;-59
2021/12/06 08:05:30;;;;;;;15.63;13.57;;;;;;;3.66;89.43;94998.31;4368676;32;20276;-59
2021/12/06 08:08:17;;;;;;;14.70;13.17;;;;;;;3.12;91.32;95014.31;4364656;32;20338;-60
2021/12/06 08:10:46;;;;;;;16.67;13.50;;;;;;;3.45;90.74;94995.63;4370533;32;20322;-60
2021/12/06 08:13:16;;;;;;;16.63;14.43;;;;;;;3.15;91.57;95008.56;4368822;32;20336;-60
2021/12/06 08:15:42;;;;;;;15.43;12.70;;;;;;;3.09;92.22;95010.41;4378433;32;20288;-61
2021/12/06 08:18:07;;;;;;;15.83;14.07;;;;;;;3.33;91.62;95017.84;4363069;32;20272;-58
2021/12/06 08:20:33;;;;;;;16.80;13.87;;;;;;;3.33;91.23;95021.25;4369295;32;20189;-60
2021/12/06 08:22:59;;;;;;;16.53;13.77;;;;;;;3.25;91.65;95029.59;4375459;32;20188;-59
2021/12/06 08:25:24;;;;;;;15.83;12.97;;;;;;;3.39;90.88;95020.22;4379988;32;20325;-60
2021/12/06 08:27:51;;;;;;;16.10;13.53;;;;;;;3.36;90.62;95030.44;4383143;32;20197;-60
2021/12/06 08:30:21;;;;;;;16.77;13.57;;;;;;;3.44;90.96;95033.38;4384943;32;20238;-59
2021/12/06 08:32:52;;;;;;;16.63;13.63;;;;;;;3.32;90.83;95032.81;4382120;32;20274;-61
2021/12/06 08:35:18;;;;;;;14.37;12.90;;;;;;;3.33;90.88;95036.97;4388163;32;20280;-61
2021/12/06 08:37:44;;;;;;;17.67;13.77;;;;;;;3.28;91.87;95039.59;4379876;32;20303;-61
2021/12/06 08:40:10;;;;;;;14.83;12.77;;;;;;;3.20;91.76;95042.69;4379698;32;20208;-61
2021/12/06 08:42:35;;;;;;;14.47;12.37;;;;;;;2.98;92.20;95044.63;4386385;32;20272;-61
2021/12/06 08:45:02;;;;;;;14.63;13.13;;;;;;;3.09;92.60;95043.66;4382586;32;20246;-61
2021/12/06 08:47:28;;;;;;;19.30;14.50;;;;;;;2.97;93.20;95048.28;4384652;32;20192;-61
2021/12/06 08:49:53;;;;;;;14.63;12.90;;;;;;;3.20;92.95;95045.28;4375013;32;20299;-60
2021/12/06 08:52:19;;;;;;;15.40;12.50;;;;;;;3.24;92.87;95037.72;4388203;32;20193;-63
2021/12/06 08:54:45;;;;;;;14.67;11.70;;;;;;;3.29;92.04;95043.78;4384913;32;20243;-60
2021/12/06 08:57:10;;;;;;;14.47;12.00;;;;;;;3.43;91.20;95051.97;4390402;32;20298;-59
2021/12/06 08:59:37;;;;;;;18.10;12.00;;;;;;;3.49;90.62;95050.97;4386148;32;20199;-61
2021/12/06 09:02:03;;;;;;;19.13;12.90;;;;;;;3.57;90.35;95062.78;4390205;32;20264;-60
2021/12/06 09:04:33;;;;;;;16.47;11.93;;;;;;;3.35;90.81;95061.09;4378002;32;20272;-61
2021/12/06 09:07:00;;;;;;;14.30;12.13;;;;;;;3.60;90.17;95062.28;4384231;32;20302;-59
2021/12/06 09:09:27;;;;;;;15.83;11.67;;;;;;;3.35;90.09;95070.78;4385708;32;20371;-60
2021/12/06 09:11:54;;;;;;;18.17;12.97;;;;;;;3.28;90.39;95073.66;4388082;32;20414;-61
2021/12/06 09:14:21;;;;;;;15.67;13.10;;;;;;;3.35;91.28;95076.81;4380903;32;20269;-59
2021/12/06 09:16:47;;;;;;;15.80;13.50;;;;;;;3.31;92.04;95083.66;4385403;32;20269;-61
2021/12/06 09:19:14;;;;;;;16.13;12.77;;;;;;;3.40;91.27;95079.47;4381950;32;20355;-58
2021/12/06 09:21:43;;;;;;;17.67;13.60;;;;;;;3.63;91.00;95077.50;4388840;32;20269;-59
2021/12/06 09:24:13;;;;;;;14.20;12.70;;;;;;;3.75;90.43;95070.19;4385344;32;20316;-61
2021/12/06 09:26:38;;;;;;;15.80;12.70;;;;;;;3.97;88.82;95077.87;4382260;32;20326;-63
2021/12/06 09:29:05;;;;;;;13.03;11.63;;;;;;;3.80;89.27;95083.34;4372354;32;20273;-61
2021/12/06 09:31:30;;;;;;;15.93;10.90;;;;;;;3.77;88.65;95083.84;4377340;32;20220;-61
2021/12/06 09:33:56;;;;;;;13.57;10.93;;;;;;;3.70;89.44;95083.31;4382781;32;20355;-59
2021/12/06 09:36:22;;;;;;;15.23;11.70;;;;;;;3.80;89.49;95078.09;4372280;32;20192;-58
2021/12/06 09:38:47;;;;;;;14.87;11.50;;;;;;;3.99;88.29;95075.81;4388570;32;20201;-58
2021/12/06 09:41:20;;;;;;;14.00;11.50;;;;;;;3.88;87.47;95079.44;4383209;32;20195;-58
2021/12/06 09:43:46;;;;;;;16.57;12.50;;;;;;;3.87;88.18;95070.78;4386217;32;20181;-58
2021/12/06 09:46:12;;;;;;;16.80;12.17;;;;;;;3.87;88.69;95078.66;4378357;32;20296;-59
2021/12/06 09:48:40;;;;;;;18.97;12.40;;;;;;;3.71;89.08;95077.03;4377889;32;20288;-59
2021/12/06 09:51:10;;;;;;;20.50;12.03;;;;;;;3.81;87.89;95074.44;4373808;32;20284;-59
2021/12/06 09:53:38;;;;;;;13.97;12.10;;;;;;;3.75;88.10;95070.19;4376840;32;20308;-59
2021/12/06 09:56:07;;;;;;;16.40;12.30;;;;;;;3.70;89.00;95075.44;4374732;32;20295;-59
2021/12/06 09:58:34;;;;;;;15.67;12.27;;;;;;;3.64;88.68;95074.63;4386821;32;20272;-60
2021/12/06 10:01:07;;;;;;;17.97;11.97;;;;;;;3.64;88.45;95068.59;4384030;32;20405;-59
2021/12/06 10:03:33;;;;;;;16.00;12.40;;;;;;;3.61;88.37;95069.87;4389278;32;20272;-59
2021/12/06 10:06:02;;;;;;;14.67;11.83;;;;;;;3.61;89.06;95079.59;4385093;32;20295;-58
2021/12/06 10:08:30;;;;;;;16.47;12.87;;;;;;;3.85;88.46;95075.50;4385164;32;20177;-58
2021/12/06 10:10:56;;;;;;;14.60;12.63;;;;;;;3.75;89.04;95064.97;4386246;32;20276;-58
2021/12/06 10:13:22;;;;;;;13.00;11.60;;;;;;;3.76;88.58;95071.78;4385931;32;20314;-58
2021/12/06 10:15:48;;;;;;;15.63;11.20;;;;;;;3.62;89.47;95078.53;4387352;32;20197;-59
2021/12/06 10:18:16;;;;;;;15.47;11.83;;;;;;;3.86;89.00;95071.84;4380073;32;20203;-59
2021/12/06 10:20:43;;;;;;;16.23;11.67;;;;;;;3.87;87.79;95068.16;4378465;32;20268;-62
2021/12/06 10:23:09;;;;;;;15.70;11.17;;;;;;;3.86;87.57;95065.78;4383467;32;20315;-59
2021/12/06 10:25:38;;;;;;;13.63;10.77;;;;;;;3.67;87.95;95075.94;4388331;32;20284;-59
2021/12/06 10:28:05;;;;;;;14.00;11.50;;;;;;;3.97;86.78;95070.03;4375645;32;20284;-59
2021/12/06 10:30:35;;;;;;;17.97;12.70;;;;;;;3.80;87.83;95070.22;4374228;32;20319;-58
2021/12/06 10:33:13;;;;;;;15.07;12.07;;;;;;;3.86;87.30;95077.09;4383883;32;20295;-59
2021/12/06 10:35:43;;;;;;;13.33;10.60;;;;;;;3.85;87.89;95074.72;4387274;32;20311;-59
2021/12/06 10:38:09;;;;;;;14.67;8.27;;;;;;;3.91;87.03;95074.47;4379232;32;20313;-55
2021/12/06 10:40:40;;;;;;;7.83;7.03;;;;;;;9.19;100.00;95056.00;4381068;32;20273;-55
2021/12/06 10:43:09;;;;;;;7.13;6.43;;;;;;;12.52;69.04;95053.06;4389109;32;20295;-56
2021/12/06 10:45:47;;;;;;;8.80;7.30;;;;;;;14.51;60.09;95069.37;4383355;32;20280;-57
2021/12/06 10:48:21;;;;;;;7.73;7.03;;;;;;;15.40;54.99;95056.53;4384284;32;20202;-57
2021/12/06 10:50:52;;;;;;;8.93;7.60;;;;;;;16.60;50.83;95069.59;4383989;32;20251;-56
2021/12/06 10:53:34;;;;;;;10.27;9.47;;;;;;;16.73;46.51;95063.13;4381615;32;20193;-59
2021/12/06 10:55:59;;;;;;;10.97;9.90;;;;;;;15.09;45.12;95073.81;4380808;32;20219;-59
2021/12/06 10:58:29;;;;;;;11.17;10.17;;;;;;;12.24;50.64;95081.03;4384474;32;20189;-58
2021/12/06 11:01:12;;;;;;;11.80;10.70;;;;;;;9.94;58.31;95078.75;4381432;32;20195;-58
2021/12/06 11:03:44;;;;;;;11.60;10.53;;;;;;;8.44;63.58;95071.19;4388808;32;20242;-59
2021/12/06 11:06:18;;;;;;;10.27;9.33;;;;;;;6.69;70.89;95079.53;4382535;32;20204;-58
2021/12/06 11:08:45;;;;;;;10.97;9.97;;;;;;;6.46;72.72;95081.78;4368757;32;20203;-59
2021/12/06 11:11:20;;;;;;;10.93;9.83;;;;;;;5.62;75.93;95082.66;4380612;32;20207;-59
2021/12/06 11:13:48;;;;;;;10.80;9.80;;;;;;;5.80;77.88;95090.00;4383458;32;20192;-58
2021/12/06 11:16:21;;;;;;;10.57;9.40;;;;;;;5.35;78.04;95093.53;4379013;32;20300;-58
2021/12/06 11:18:54;;;;;;;10.40;9.40;;;;;;;5.21;79.53;95092.47;4375915;32;20288;-59
2021/12/06 11:21:24;;;;;;;13.13;10.47;;;;;;;5.00;80.05;95098.81;4385719;32;20296;-58
2021/12/06 11:23:59;;;;;;;11.17;10.07;;;;;;;4.68;81.88;95094.59;4374070;32;20284;-59
2021/12/06 11:26:25;;;;;;;10.70;9.70;;;;;;;4.73;82.11;95091.97;4379750;32;20288;-59
2021/12/06 11:28:51;;;;;;;11.80;10.60;;;;;;;4.83;81.89;95093.81;4378959;32;20351;-59
2021/12/06 11:31:18;;;;;;;11.70;9.53;;;;;;;4.80;82.29;95097.75;4383769;32;20272;-58
2021/12/06 11:33:55;;;;;;;11.47;9.73;;;;;;;4.97;81.40;95087.00;4376541;32;20192;-59
2021/12/06 11:36:23;;;;;;;10.70;9.70;;;;;;;4.66;81.83;95091.44;4378566;32;20284;-59
2021/12/06 11:39:00;;;;;;;10.20;9.30;;;;;;;4.62;82.25;95085.13;4376690;32;20354;-59
2021/12/06 11:41:25;;;;;;;12.75;11.45;;;;;;;4.45;83.89;95088.00;4385260;32;20138;-58